TimeEST,TemperatureF,Dew PointF,Humidity,Sea Level PressureIn,VisibilityMPH,Wind Direction,Wind SpeedMPH,Gust SpeedMPH,PrecipitationIn,Events,Conditions,WindDirDegrees,DateUTC
12:53 AM,27.0,23.0,85,29.92,4.0,Calm,Calm,-,N/A,,Clear,0,2013-12-03 05:53:00
1:53 AM,25.0,21.0,85,29.92,5.0,Calm,Calm,-,N/A,,Clear,0,2013-12-03 06:53:00
2:53 AM,27.0,23.0,85,29.93,6.0,Calm,Calm,-,N/A,,Clear,0,2013-12-03 07:53:00
3:53 AM,25.0,21.0,85,29.93,6.0,Calm,Calm,-,N/A,,Clear,0,2013-12-03 08:53:00
4:53 AM,28.0,24.1,85,29.92,9.0,East,3.5,-,N/A,,Overcast,100,2013-12-03 09:53:00
5:53 AM,30.0,25.0,82,29.92,10.0,East,5.8,-,N/A,,Overcast,80,2013-12-03 10:53:00
6:53 AM,30.9,26.1,82,29.94,10.0,East,3.5,-,N/A,,Overcast,100,2013-12-03 11:53:00
7:53 AM,30.9,25.0,79,29.93,10.0,East,4.6,-,N/A,,Overcast,80,2013-12-03 12:53:00
8:53 AM,32.0,26.1,79,29.96,10.0,Calm,Calm,-,N/A,,Overcast,0,2013-12-03 13:53:00
9:53 AM,33.1,27.0,78,29.95,10.0,East,3.5,-,N/A,,Scattered Clouds,100,2013-12-03 14:53:00
10:53 AM,36.0,27.0,70,29.95,10.0,SE,4.6,-,N/A,,Clear,130,2013-12-03 15:53:00
11:53 AM,37.9,28.9,70,29.93,10.0,SSE,5.8,-,N/A,,Mostly Cloudy,150,2013-12-03 16:53:00
12:53 PM,39.9,28.9,65,29.92,10.0,Calm,Calm,-,N/A,,Mostly Cloudy,0,2013-12-03 17:53:00
1:53 PM,39.9,30.0,68,29.93,10.0,ENE,3.5,-,N/A,,Overcast,70,2013-12-03 18:53:00
2:21 PM,41.0,30.2,65,29.90,10.0,Calm,Calm,-,N/A,,Overcast,0,2013-12-03 19:21:00
2:48 PM,39.2,30.2,70,29.90,10.0,East,4.6,-,N/A,,Overcast,90,2013-12-03 19:48:00
2:53 PM,39.9,30.0,68,29.93,10.0,East,3.5,-,N/A,,Overcast,80,2013-12-03 19:53:00
3:53 PM,39.9,32.0,73,29.92,9.0,ESE,4.6,-,N/A,,Overcast,110,2013-12-03 20:53:00
4:53 PM,39.0,30.9,73,29.91,9.0,ESE,4.6,-,0.00,,Overcast,110,2013-12-03 21:53:00
5:53 PM,39.0,30.9,73,29.92,10.0,SE,3.5,-,N/A,,Overcast,130,2013-12-03 22:53:00
6:53 PM,37.0,30.0,76,29.93,10.0,Calm,Calm,-,N/A,,Overcast,0,2013-12-03 23:53:00
7:53 PM,37.9,30.9,76,29.93,8.0,ESE,3.5,-,N/A,,Overcast,110,2013-12-04 00:53:00
8:53 PM,39.9,33.1,77,29.92,9.0,SE,5.8,-,N/A,,Mostly Cloudy,130,2013-12-04 01:53:00
9:53 PM,41.0,33.1,73,29.92,9.0,SE,4.6,-,N/A,,Partly Cloudy,140,2013-12-04 02:53:00
10:53 PM,41.0,34.0,76,29.90,9.0,SE,6.9,-,N/A,,Overcast,130,2013-12-04 03:53:00
11:53 PM,41.0,34.0,76,29.91,8.0,SSE,8.1,-,N/A,,Mostly Cloudy,150,2013-12-04 04:53:00